sensor_id;sensor_type;location;lat;lon;timestamp;temperature;humidity
32334;DHT22;18810;53.040;8.850;2023-07-30T00:01:20;17.20;99.90
32334;DHT22;18810;53.040;8.850;2023-07-30T00:03:46;17.20;99.90
32334;DHT22;18810;53.040;8.850;2023-07-30T00:06:12;17.30;99.90
32334;DHT22;18810;53.040;8.850;2023-07-30T00:08:37;17.20;99.90
32334;DHT22;18810;53.040;8.850;2023-07-30T00:11:03;17.20;99.90
32334;DHT22;18810;53.040;8.850;2023-07-30T00:13:29;17.30;99.90
32334;DHT22;18810;53.040;8.850;2023-07-30T00:15:54;17.30;99.90
32334;DHT22;18810;53.040;8.850;2023-07-30T00:18:20;17.30;99.90
32334;DHT22;18810;53.040;8.850;2023-07-30T00:20:46;17.30;99.90
32334;DHT22;18810;53.040;8.850;2023-07-30T00:23:11;17.30;99.90
32334;DHT22;18810;53.040;8.850;2023-07-30T00:25:37;17.30;99.90
32334;DHT22;18810;53.040;8.850;2023-07-30T00:28:03;17.30;99.90
32334;DHT22;18810;53.040;8.850;2023-07-30T00:30:28;17.20;99.90
32334;DHT22;18810;53.040;8.850;2023-07-30T00:32:54;17.20;99.90
32334;DHT22;18810;53.040;8.850;2023-07-30T00:35:20;17.20;99.90
32334;DHT22;18810;53.040;8.850;2023-07-30T00:37:46;17.10;99.90
32334;DHT22;18810;53.040;8.850;2023-07-30T00:40:12;17.10;99.90
32334;DHT22;18810;53.040;8.850;2023-07-30T00:42:37;17.10;99.90
32334;DHT22;18810;53.040;8.850;2023-07-30T00:45:03;17.10;99.90
32334;DHT22;18810;53.040;8.850;2023-07-30T00:47:30;17.20;99.90
32334;DHT22;18810;53.040;8.850;2023-07-30T00:49:56;17.20;99.90
32334;DHT22;18810;53.040;8.850;2023-07-30T00:52:23;17.00;99.90
32334;DHT22;18810;53.040;8.850;2023-07-30T00:54:51;17.10;99.90
32334;DHT22;18810;53.040;8.850;2023-07-30T00:57:19;17.20;99.90
32334;DHT22;18810;53.040;8.850;2023-07-30T00:59:45;17.10;99.90
32334;DHT22;18810;53.040;8.850;2023-07-30T01:02:12;17.10;99.90
32334;DHT22;18810;53.040;8.850;2023-07-30T01:04:37;17.00;99.90
32334;DHT22;18810;53.040;8.850;2023-07-30T01:07:05;17.00;99.90
32334;DHT22;18810;53.040;8.850;2023-07-30T01:09:32;16.90;99.90
32334;DHT22;18810;53.040;8.850;2023-07-30T01:12:00;16.80;99.90
32334;DHT22;18810;53.040;8.850;2023-07-30T01:14:27;16.80;99.90
32334;DHT22;18810;53.040;8.850;2023-07-30T01:16:53;16.80;99.90
32334;DHT22;18810;53.040;8.850;2023-07-30T01:19:19;16.80;99.90
32334;DHT22;18810;53.040;8.850;2023-07-30T01:21:44;16.70;99.90
32334;DHT22;18810;53.040;8.850;2023-07-30T01:24:10;16.80;99.90
32334;DHT22;18810;53.040;8.850;2023-07-30T01:29:09;16.70;99.90
32334;DHT22;18810;53.040;8.850;2023-07-30T01:31:39;16.70;99.90
32334;DHT22;18810;53.040;8.850;2023-07-30T01:34:07;16.70;99.90
32334;DHT22;18810;53.040;8.850;2023-07-30T01:36:33;16.70;99.90
32334;DHT22;18810;53.040;8.850;2023-07-30T01:39:00;16.60;99.90
32334;DHT22;18810;53.040;8.850;2023-07-30T01:41:27;16.50;99.90
32334;DHT22;18810;53.040;8.850;2023-07-30T01:43:53;16.50;99.90
32334;DHT22;18810;53.040;8.850;2023-07-30T01:46:19;16.50;99.90
32334;DHT22;18810;53.040;8.850;2023-07-30T01:48:45;16.40;99.90
32334;DHT22;18810;53.040;8.850;2023-07-30T01:51:11;16.50;99.90
32334;DHT22;18810;53.040;8.850;2023-07-30T01:53:36;16.40;99.90
32334;DHT22;18810;53.040;8.850;2023-07-30T01:56:02;16.40;99.90
32334;DHT22;18810;53.040;8.850;2023-07-30T01:58:28;16.40;99.90
32334;DHT22;18810;53.040;8.850;2023-07-30T02:00:53;16.40;99.90
32334;DHT22;18810;53.040;8.850;2023-07-30T02:03:19;16.30;99.90
32334;DHT22;18810;53.040;8.850;2023-07-30T02:05:45;16.30;99.90
32334;DHT22;18810;53.040;8.850;2023-07-30T02:08:10;16.30;99.90
32334;DHT22;18810;53.040;8.850;2023-07-30T02:10:38;16.30;99.90
32334;DHT22;18810;53.040;8.850;2023-07-30T02:13:04;16.30;99.90
32334;DHT22;18810;53.040;8.850;2023-07-30T02:15:30;16.20;99.90
32334;DHT22;18810;53.040;8.850;2023-07-30T02:17:55;16.30;99.90
32334;DHT22;18810;53.040;8.850;2023-07-30T02:20:21;16.20;99.90
32334;DHT22;18810;53.040;8.850;2023-07-30T02:22:47;16.10;99.90
32334;DHT22;18810;53.040;8.850;2023-07-30T02:25:13;16.10;99.90
32334;DHT22;18810;53.040;8.850;2023-07-30T02:27:39;16.10;99.90
32334;DHT22;18810;53.040;8.850;2023-07-30T02:30:05;16.10;99.90
32334;DHT22;18810;53.040;8.850;2023-07-30T02:32:31;16.10;99.90
32334;DHT22;18810;53.040;8.850;2023-07-30T02:34:56;16.00;99.90
32334;DHT22;18810;53.040;8.850;2023-07-30T02:37:22;16.00;99.90
32334;DHT22;18810;53.040;8.850;2023-07-30T02:39:48;16.00;99.90
32334;DHT22;18810;53.040;8.850;2023-07-30T02:42:13;15.80;99.90
32334;DHT22;18810;53.040;8.850;2023-07-30T02:44:39;15.90;99.90
32334;DHT22;18810;53.040;8.850;2023-07-30T02:47:05;15.90;99.90
32334;DHT22;18810;53.040;8.850;2023-07-30T02:49:30;15.80;99.90
32334;DHT22;18810;53.040;8.850;2023-07-30T02:51:56;15.80;99.90
32334;DHT22;18810;53.040;8.850;2023-07-30T02:54:22;15.80;99.90
32334;DHT22;18810;53.040;8.850;2023-07-30T02:56:48;15.80;99.90
32334;DHT22;18810;53.040;8.850;2023-07-30T02:59:14;15.90;99.90
32334;DHT22;18810;53.040;8.850;2023-07-30T03:01:40;15.90;99.90
32334;DHT22;18810;53.040;8.850;2023-07-30T03:04:05;15.80;99.90
32334;DHT22;18810;53.040;8.850;2023-07-30T03:06:31;15.80;99.90
32334;DHT22;18810;53.040;8.850;2023-07-30T03:08:57;15.80;99.90
32334;DHT22;18810;53.040;8.850;2023-07-30T03:11:23;15.80;99.90
32334;DHT22;18810;53.040;8.850;2023-07-30T03:13:49;15.70;99.90
32334;DHT22;18810;53.040;8.850;2023-07-30T03:16:14;15.70;99.90
32334;DHT22;18810;53.040;8.850;2023-07-30T03:18:40;15.70;99.90
32334;DHT22;18810;53.040;8.850;2023-07-30T03:21:06;15.70;99.90
32334;DHT22;18810;53.040;8.850;2023-07-30T03:23:31;15.60;99.90
32334;DHT22;18810;53.040;8.850;2023-07-30T03:25:58;15.60;99.90
32334;DHT22;18810;53.040;8.850;2023-07-30T03:28:25;15.60;99.90
32334;DHT22;18810;53.040;8.850;2023-07-30T03:30:51;15.50;99.90
32334;DHT22;18810;53.040;8.850;2023-07-30T03:33:17;15.50;99.90
32334;DHT22;18810;53.040;8.850;2023-07-30T03:35:42;15.50;99.90
32334;DHT22;18810;53.040;8.850;2023-07-30T03:38:08;15.60;99.90
32334;DHT22;18810;53.040;8.850;2023-07-30T03:40:34;15.60;99.90
32334;DHT22;18810;53.040;8.850;2023-07-30T03:43:00;15.60;99.90
32334;DHT22;18810;53.040;8.850;2023-07-30T03:45:25;15.60;99.90
32334;DHT22;18810;53.040;8.850;2023-07-30T03:47:51;15.60;99.90
32334;DHT22;18810;53.040;8.850;2023-07-30T03:50:17;15.50;99.90
32334;DHT22;18810;53.040;8.850;2023-07-30T03:52:42;15.50;99.90
32334;DHT22;18810;53.040;8.850;2023-07-30T03:55:08;15.50;99.90
32334;DHT22;18810;53.040;8.850;2023-07-30T03:57:34;15.50;99.90
32334;DHT22;18810;53.040;8.850;2023-07-30T04:00:00;15.50;99.90
32334;DHT22;18810;53.040;8.850;2023-07-30T04:02:26;15.60;99.90
32334;DHT22;18810;53.040;8.850;2023-07-30T04:04:52;15.50;99.90
32334;DHT22;18810;53.040;8.850;2023-07-30T04:07:17;15.60;99.90
32334;DHT22;18810;53.040;8.850;2023-07-30T04:09:43;15.60;99.90
32334;DHT22;18810;53.040;8.850;2023-07-30T04:12:09;16.60;99.90
32334;DHT22;18810;53.040;8.850;2023-07-30T04:14:35;15.60;99.90
32334;DHT22;18810;53.040;8.850;2023-07-30T04:17:00;15.60;99.90
32334;DHT22;18810;53.040;8.850;2023-07-30T04:19:26;15.60;99.90
32334;DHT22;18810;53.040;8.850;2023-07-30T04:21:52;15.70;99.90
32334;DHT22;18810;53.040;8.850;2023-07-30T04:24:17;15.70;99.90
32334;DHT22;18810;53.040;8.850;2023-07-30T04:26:43;15.70;99.90
32334;DHT22;18810;53.040;8.850;2023-07-30T04:29:09;15.70;99.90
32334;DHT22;18810;53.040;8.850;2023-07-30T04:31:35;15.60;99.90
32334;DHT22;18810;53.040;8.850;2023-07-30T04:34:01;15.60;99.90
32334;DHT22;18810;53.040;8.850;2023-07-30T04:36:27;15.70;99.90
32334;DHT22;18810;53.040;8.850;2023-07-30T04:38:54;15.80;99.90
32334;DHT22;18810;53.040;8.850;2023-07-30T04:41:19;15.70;99.90
32334;DHT22;18810;53.040;8.850;2023-07-30T04:43:46;15.80;99.90
32334;DHT22;18810;53.040;8.850;2023-07-30T04:46:11;15.80;99.90
32334;DHT22;18810;53.040;8.850;2023-07-30T04:48:37;15.80;99.90
32334;DHT22;18810;53.040;8.850;2023-07-30T04:51:03;15.90;99.90
32334;DHT22;18810;53.040;8.850;2023-07-30T04:53:29;15.90;99.90
32334;DHT22;18810;53.040;8.850;2023-07-30T04:55:55;16.00;99.90
32334;DHT22;18810;53.040;8.850;2023-07-30T04:58:22;16.00;99.90
32334;DHT22;18810;53.040;8.850;2023-07-30T05:00:48;16.00;99.90
32334;DHT22;18810;53.040;8.850;2023-07-30T05:03:14;16.10;99.90
32334;DHT22;18810;53.040;8.850;2023-07-30T05:05:40;16.10;99.90
32334;DHT22;18810;53.040;8.850;2023-07-30T05:08:06;16.10;99.90
32334;DHT22;18810;53.040;8.850;2023-07-30T05:10:32;16.10;99.90
32334;DHT22;18810;53.040;8.850;2023-07-30T05:12:58;16.10;99.90
32334;DHT22;18810;53.040;8.850;2023-07-30T05:15:23;16.10;99.90
32334;DHT22;18810;53.040;8.850;2023-07-30T05:17:49;16.10;99.90
32334;DHT22;18810;53.040;8.850;2023-07-30T05:20:15;16.10;99.90
32334;DHT22;18810;53.040;8.850;2023-07-30T05:22:40;16.10;99.90
32334;DHT22;18810;53.040;8.850;2023-07-30T05:25:06;16.20;99.90
32334;DHT22;18810;53.040;8.850;2023-07-30T05:27:32;16.40;99.90
32334;DHT22;18810;53.040;8.850;2023-07-30T05:29:58;16.70;99.90
32334;DHT22;18810;53.040;8.850;2023-07-30T05:32:23;17.20;99.90
32334;DHT22;18810;53.040;8.850;2023-07-30T05:34:49;17.00;99.90
32334;DHT22;18810;53.040;8.850;2023-07-30T05:37:15;17.10;99.90
32334;DHT22;18810;53.040;8.850;2023-07-30T05:39:41;17.20;99.90
32334;DHT22;18810;53.040;8.850;2023-07-30T05:42:06;17.30;99.90
32334;DHT22;18810;53.040;8.850;2023-07-30T05:44:32;17.30;99.90
32334;DHT22;18810;53.040;8.850;2023-07-30T05:46:58;17.20;99.90
32334;DHT22;18810;53.040;8.850;2023-07-30T05:49:24;17.20;99.90
32334;DHT22;18810;53.040;8.850;2023-07-30T05:51:50;17.10;99.90
32334;DHT22;18810;53.040;8.850;2023-07-30T05:54:17;17.10;99.90
32334;DHT22;18810;53.040;8.850;2023-07-30T05:56:43;17.10;99.90
32334;DHT22;18810;53.040;8.850;2023-07-30T05:59:09;17.10;99.90
32334;DHT22;18810;53.040;8.850;2023-07-30T06:01:34;17.00;99.90
32334;DHT22;18810;53.040;8.850;2023-07-30T06:04:00;17.10;99.90
32334;DHT22;18810;53.040;8.850;2023-07-30T06:06:26;17.20;99.90
32334;DHT22;18810;53.040;8.850;2023-07-30T06:08:55;17.20;99.90
32334;DHT22;18810;53.040;8.850;2023-07-30T06:11:20;17.30;99.90
32334;DHT22;18810;53.040;8.850;2023-07-30T06:13:46;17.40;99.90
32334;DHT22;18810;53.040;8.850;2023-07-30T06:16:14;17.70;99.90
32334;DHT22;18810;53.040;8.850;2023-07-30T06:18:39;18.00;99.90
32334;DHT22;18810;53.040;8.850;2023-07-30T06:21:05;18.40;99.90
32334;DHT22;18810;53.040;8.850;2023-07-30T06:23:31;19.00;99.90
32334;DHT22;18810;53.040;8.850;2023-07-30T06:25:56;19.80;99.90
32334;DHT22;18810;53.040;8.850;2023-07-30T06:28:25;20.70;99.90
32334;DHT22;18810;53.040;8.850;2023-07-30T06:30:51;21.80;99.90
32334;DHT22;18810;53.040;8.850;2023-07-30T06:33:16;22.00;99.90
32334;DHT22;18810;53.040;8.850;2023-07-30T06:35:42;22.00;99.90
32334;DHT22;18810;53.040;8.850;2023-07-30T06:38:08;21.50;99.90
32334;DHT22;18810;53.040;8.850;2023-07-30T06:40:34;21.00;99.90
32334;DHT22;18810;53.040;8.850;2023-07-30T06:43:00;20.60;99.90
32334;DHT22;18810;53.040;8.850;2023-07-30T06:45:26;20.60;99.90
32334;DHT22;18810;53.040;8.850;2023-07-30T06:47:52;20.30;99.90
32334;DHT22;18810;53.040;8.850;2023-07-30T06:50:17;20.10;99.90
32334;DHT22;18810;53.040;8.850;2023-07-30T06:52:43;19.90;99.90
32334;DHT22;18810;53.040;8.850;2023-07-30T06:55:09;19.80;99.90
32334;DHT22;18810;53.040;8.850;2023-07-30T06:57:35;19.90;99.90
32334;DHT22;18810;53.040;8.850;2023-07-30T07:00:03;20.10;99.90
32334;DHT22;18810;53.040;8.850;2023-07-30T07:02:30;19.90;99.90
32334;DHT22;18810;53.040;8.850;2023-07-30T07:04:56;19.90;99.90
32334;DHT22;18810;53.040;8.850;2023-07-30T07:07:21;19.90;99.90
32334;DHT22;18810;53.040;8.850;2023-07-30T07:09:47;19.70;99.90
32334;DHT22;18810;53.040;8.850;2023-07-30T07:12:13;19.50;99.90
32334;DHT22;18810;53.040;8.850;2023-07-30T07:14:38;19.60;99.90
32334;DHT22;18810;53.040;8.850;2023-07-30T07:17:04;19.90;99.90
32334;DHT22;18810;53.040;8.850;2023-07-30T07:19:30;20.00;99.90
32334;DHT22;18810;53.040;8.850;2023-07-30T07:21:56;20.10;99.90
32334;DHT22;18810;53.040;8.850;2023-07-30T07:24:22;20.00;99.90
32334;DHT22;18810;53.040;8.850;2023-07-30T07:26:48;19.90;99.90
32334;DHT22;18810;53.040;8.850;2023-07-30T07:29:13;19.70;99.90
32334;DHT22;18810;53.040;8.850;2023-07-30T07:31:39;19.90;99.90
32334;DHT22;18810;53.040;8.850;2023-07-30T07:34:05;20.30;99.90
32334;DHT22;18810;53.040;8.850;2023-07-30T07:36:30;20.90;99.90
32334;DHT22;18810;53.040;8.850;2023-07-30T07:38:56;21.00;99.90
32334;DHT22;18810;53.040;8.850;2023-07-30T07:41:22;21.70;99.90
32334;DHT22;18810;53.040;8.850;2023-07-30T07:43:47;22.80;99.90
32334;DHT22;18810;53.040;8.850;2023-07-30T07:46:13;23.50;99.90
32334;DHT22;18810;53.040;8.850;2023-07-30T07:48:40;23.30;99.90
32334;DHT22;18810;53.040;8.850;2023-07-30T07:51:08;23.00;99.90
32334;DHT22;18810;53.040;8.850;2023-07-30T07:53:33;22.10;99.90
32334;DHT22;18810;53.040;8.850;2023-07-30T07:55:59;21.40;99.90
32334;DHT22;18810;53.040;8.850;2023-07-30T07:58:25;21.60;99.90
32334;DHT22;18810;53.040;8.850;2023-07-30T08:00:54;22.50;99.90
32334;DHT22;18810;53.040;8.850;2023-07-30T08:03:20;23.20;99.90
32334;DHT22;18810;53.040;8.850;2023-07-30T08:05:45;23.40;99.90
32334;DHT22;18810;53.040;8.850;2023-07-30T08:08:11;23.70;99.90
32334;DHT22;18810;53.040;8.850;2023-07-30T08:10:40;23.60;99.90
32334;DHT22;18810;53.040;8.850;2023-07-30T08:13:12;23.10;99.90
32334;DHT22;18810;53.040;8.850;2023-07-30T08:15:38;22.70;99.90
32334;DHT22;18810;53.040;8.850;2023-07-30T08:18:03;22.40;99.90
32334;DHT22;18810;53.040;8.850;2023-07-30T08:20:29;22.10;99.90
32334;DHT22;18810;53.040;8.850;2023-07-30T08:22:55;22.40;99.90
32334;DHT22;18810;53.040;8.850;2023-07-30T08:25:21;22.60;99.90
32334;DHT22;18810;53.040;8.850;2023-07-30T08:27:46;22.60;99.90
32334;DHT22;18810;53.040;8.850;2023-07-30T08:30:13;22.40;99.90
32334;DHT22;18810;53.040;8.850;2023-07-30T08:32:38;22.40;99.90
32334;DHT22;18810;53.040;8.850;2023-07-30T08:35:05;22.10;99.90
32334;DHT22;18810;53.040;8.850;2023-07-30T08:37:30;22.00;99.90
32334;DHT22;18810;53.040;8.850;2023-07-30T08:39:56;21.90;99.90
32334;DHT22;18810;53.040;8.850;2023-07-30T08:42:22;21.50;99.90
32334;DHT22;18810;53.040;8.850;2023-07-30T08:44:48;21.50;99.90
32334;DHT22;18810;53.040;8.850;2023-07-30T08:47:14;21.50;99.90
32334;DHT22;18810;53.040;8.850;2023-07-30T08:49:39;21.50;99.90
32334;DHT22;18810;53.040;8.850;2023-07-30T08:52:08;21.80;99.90
32334;DHT22;18810;53.040;8.850;2023-07-30T08:54:34;22.20;99.90
32334;DHT22;18810;53.040;8.850;2023-07-30T08:57:02;22.40;99.90
32334;DHT22;18810;53.040;8.850;2023-07-30T08:59:42;22.00;99.90
32334;DHT22;18810;53.040;8.850;2023-07-30T09:02:13;22.10;99.90
32334;DHT22;18810;53.040;8.850;2023-07-30T09:04:41;22.20;99.90
32334;DHT22;18810;53.040;8.850;2023-07-30T09:07:09;22.50;99.90
32334;DHT22;18810;53.040;8.850;2023-07-30T09:09:36;22.40;99.90
32334;DHT22;18810;53.040;8.850;2023-07-30T09:12:02;22.50;99.90
32334;DHT22;18810;53.040;8.850;2023-07-30T09:14:28;22.60;99.90
32334;DHT22;18810;53.040;8.850;2023-07-30T09:16:57;23.10;99.90
32334;DHT22;18810;53.040;8.850;2023-07-30T09:19:23;23.30;99.90
32334;DHT22;18810;53.040;8.850;2023-07-30T09:21:49;23.60;99.90
32334;DHT22;18810;53.040;8.850;2023-07-30T09:24:21;23.60;99.90
32334;DHT22;18810;53.040;8.850;2023-07-30T09:26:47;23.40;99.90
32334;DHT22;18810;53.040;8.850;2023-07-30T09:29:13;23.20;99.90
32334;DHT22;18810;53.040;8.850;2023-07-30T09:31:53;22.70;99.90
32334;DHT22;18810;53.040;8.850;2023-07-30T09:34:21;22.50;99.90
32334;DHT22;18810;53.040;8.850;2023-07-30T09:36:49;22.50;99.90
32334;DHT22;18810;53.040;8.850;2023-07-30T09:39:25;22.30;99.90
32334;DHT22;18810;53.040;8.850;2023-07-30T09:41:53;21.80;99.90
32334;DHT22;18810;53.040;8.850;2023-07-30T09:44:24;21.50;99.90
32334;DHT22;18810;53.040;8.850;2023-07-30T09:46:50;21.70;99.90
32334;DHT22;18810;53.040;8.850;2023-07-30T09:49:17;21.90;99.90
32334;DHT22;18810;53.040;8.850;2023-07-30T09:51:44;21.90;99.90
32334;DHT22;18810;53.040;8.850;2023-07-30T09:54:14;21.80;99.90
32334;DHT22;18810;53.040;8.850;2023-07-30T09:56:41;21.90;99.90
32334;DHT22;18810;53.040;8.850;2023-07-30T09:59:08;22.00;99.90
32334;DHT22;18810;53.040;8.850;2023-07-30T10:01:47;22.00;99.90
32334;DHT22;18810;53.040;8.850;2023-07-30T10:04:15;22.00;99.90
32334;DHT22;18810;53.040;8.850;2023-07-30T10:06:49;22.20;99.90
32334;DHT22;18810;53.040;8.850;2023-07-30T10:09:17;22.10;99.90
32334;DHT22;18810;53.040;8.850;2023-07-30T10:11:45;22.20;99.90
32334;DHT22;18810;53.040;8.850;2023-07-30T10:14:13;22.50;99.90
32334;DHT22;18810;53.040;8.850;2023-07-30T10:16:48;22.60;99.90
32334;DHT22;18810;53.040;8.850;2023-07-30T10:19:15;22.40;99.90
32334;DHT22;18810;53.040;8.850;2023-07-30T10:21:42;22.30;99.90
32334;DHT22;18810;53.040;8.850;2023-07-30T10:24:08;22.30;99.90
32334;DHT22;18810;53.040;8.850;2023-07-30T10:26:35;22.50;99.90
32334;DHT22;18810;53.040;8.850;2023-07-30T10:29:16;22.40;99.90
32334;DHT22;18810;53.040;8.850;2023-07-30T10:31:55;22.50;99.90
32334;DHT22;18810;53.040;8.850;2023-07-30T10:34:21;22.60;99.90
32334;DHT22;18810;53.040;8.850;2023-07-30T10:36:49;22.70;99.90
32334;DHT22;18810;53.040;8.850;2023-07-30T10:39:28;23.00;99.90
32334;DHT22;18810;53.040;8.850;2023-07-30T10:41:56;22.70;99.90
32334;DHT22;18810;53.040;8.850;2023-07-30T10:44:28;22.80;99.90
32334;DHT22;18810;53.040;8.850;2023-07-30T10:46:58;23.30;99.90
32334;DHT22;18810;53.040;8.850;2023-07-30T10:49:24;23.60;99.90
32334;DHT22;18810;53.040;8.850;2023-07-30T10:51:55;23.90;99.90
32334;DHT22;18810;53.040;8.850;2023-07-30T10:54:22;24.30;99.90
32334;DHT22;18810;53.040;8.850;2023-07-30T10:56:48;24.10;99.90
32334;DHT22;18810;53.040;8.850;2023-07-30T10:59:15;23.80;99.90
32334;DHT22;18810;53.040;8.850;2023-07-30T11:01:43;23.60;99.90
32334;DHT22;18810;53.040;8.850;2023-07-30T11:04:11;23.50;99.90
32334;DHT22;18810;53.040;8.850;2023-07-30T11:06:37;23.70;99.90
32334;DHT22;18810;53.040;8.850;2023-07-30T11:09:04;23.20;99.90
32334;DHT22;18810;53.040;8.850;2023-07-30T11:11:30;23.60;99.90
32334;DHT22;18810;53.040;8.850;2023-07-30T11:13:56;24.50;99.90
32334;DHT22;18810;53.040;8.850;2023-07-30T11:16:22;24.80;99.90
32334;DHT22;18810;53.040;8.850;2023-07-30T11:18:48;24.80;99.90
32334;DHT22;18810;53.040;8.850;2023-07-30T11:21:15;24.60;99.90
32334;DHT22;18810;53.040;8.850;2023-07-30T11:23:43;25.30;99.90
32334;DHT22;18810;53.040;8.850;2023-07-30T11:26:14;25.80;99.80
32334;DHT22;18810;53.040;8.850;2023-07-30T11:28:40;25.50;99.20
32334;DHT22;18810;53.040;8.850;2023-07-30T11:31:11;23.70;99.90
32334;DHT22;18810;53.040;8.850;2023-07-30T11:33:42;23.60;99.90
32334;DHT22;18810;53.040;8.850;2023-07-30T11:36:14;23.10;99.90
32334;DHT22;18810;53.040;8.850;2023-07-30T11:38:40;22.80;99.90
32334;DHT22;18810;53.040;8.850;2023-07-30T11:41:07;23.30;99.90
32334;DHT22;18810;53.040;8.850;2023-07-30T11:43:54;23.30;99.90
32334;DHT22;18810;53.040;8.850;2023-07-30T11:46:20;23.20;99.90
32334;DHT22;18810;53.040;8.850;2023-07-30T11:48:51;23.30;99.90
32334;DHT22;18810;53.040;8.850;2023-07-30T11:51:27;23.30;99.90
32334;DHT22;18810;53.040;8.850;2023-07-30T11:53:58;23.30;99.90
32334;DHT22;18810;53.040;8.850;2023-07-30T11:56:31;23.00;99.90
32334;DHT22;18810;53.040;8.850;2023-07-30T11:59:01;22.90;99.90
32334;DHT22;18810;53.040;8.850;2023-07-30T12:01:30;22.50;99.90
32334;DHT22;18810;53.040;8.850;2023-07-30T12:04:00;22.00;99.90
32334;DHT22;18810;53.040;8.850;2023-07-30T12:06:47;21.70;99.90
32334;DHT22;18810;53.040;8.850;2023-07-30T12:11:57;22.40;99.90
32334;DHT22;18810;53.040;8.850;2023-07-30T12:14:28;23.10;99.90
32334;DHT22;18810;53.040;8.850;2023-07-30T12:17:01;23.00;99.90
32334;DHT22;18810;53.040;8.850;2023-07-30T12:19:27;22.60;99.90
32334;DHT22;18810;53.040;8.850;2023-07-30T12:21:53;22.30;99.90
32334;DHT22;18810;53.040;8.850;2023-07-30T12:24:18;22.00;99.90
32334;DHT22;18810;53.040;8.850;2023-07-30T12:26:44;21.60;99.90
32334;DHT22;18810;53.040;8.850;2023-07-30T12:29:10;20.50;99.90
32334;DHT22;18810;53.040;8.850;2023-07-30T12:31:35;19.20;99.90
32334;DHT22;18810;53.040;8.850;2023-07-30T12:34:01;18.50;99.90
32334;DHT22;18810;53.040;8.850;2023-07-30T12:36:26;17.80;99.90
32334;DHT22;18810;53.040;8.850;2023-07-30T12:38:53;17.40;99.90
32334;DHT22;18810;53.040;8.850;2023-07-30T12:41:19;17.00;99.90
32334;DHT22;18810;53.040;8.850;2023-07-30T12:43:51;17.00;99.90
32334;DHT22;18810;53.040;8.850;2023-07-30T12:46:18;17.40;99.90
32334;DHT22;18810;53.040;8.850;2023-07-30T12:48:44;17.70;99.90
32334;DHT22;18810;53.040;8.850;2023-07-30T12:51:10;19.60;99.90
32334;DHT22;18810;53.040;8.850;2023-07-30T12:53:35;19.50;99.90
32334;DHT22;18810;53.040;8.850;2023-07-30T12:56:01;20.60;99.90
32334;DHT22;18810;53.040;8.850;2023-07-30T12:58:26;21.30;99.90
32334;DHT22;18810;53.040;8.850;2023-07-30T13:00:52;22.00;99.90
32334;DHT22;18810;53.040;8.850;2023-07-30T13:03:18;22.80;99.90
32334;DHT22;18810;53.040;8.850;2023-07-30T13:05:43;23.20;99.90
32334;DHT22;18810;53.040;8.850;2023-07-30T13:08:09;22.60;99.90
32334;DHT22;18810;53.040;8.850;2023-07-30T13:10:34;21.90;99.90
32334;DHT22;18810;53.040;8.850;2023-07-30T13:13:01;21.00;99.90
32334;DHT22;18810;53.040;8.850;2023-07-30T13:15:26;20.40;99.90
32334;DHT22;18810;53.040;8.850;2023-07-30T13:17:53;20.00;99.90
32334;DHT22;18810;53.040;8.850;2023-07-30T13:20:19;19.70;99.90
32334;DHT22;18810;53.040;8.850;2023-07-30T13:22:44;19.40;99.90
32334;DHT22;18810;53.040;8.850;2023-07-30T13:25:10;19.40;99.90
32334;DHT22;18810;53.040;8.850;2023-07-30T13:27:36;19.60;99.90
32334;DHT22;18810;53.040;8.850;2023-07-30T13:30:01;19.60;99.90
32334;DHT22;18810;53.040;8.850;2023-07-30T13:32:27;19.30;99.90
32334;DHT22;18810;53.040;8.850;2023-07-30T13:34:53;19.30;99.90
32334;DHT22;18810;53.040;8.850;2023-07-30T13:39:45;19.30;99.90
32334;DHT22;18810;53.040;8.850;2023-07-30T13:42:11;19.50;99.90
32334;DHT22;18810;53.040;8.850;2023-07-30T13:44:36;19.70;99.90
32334;DHT22;18810;53.040;8.850;2023-07-30T13:47:02;20.50;99.90
32334;DHT22;18810;53.040;8.850;2023-07-30T13:49:28;21.00;99.90
32334;DHT22;18810;53.040;8.850;2023-07-30T13:51:53;21.30;99.90
32334;DHT22;18810;53.040;8.850;2023-07-30T13:54:19;21.80;99.90
32334;DHT22;18810;53.040;8.850;2023-07-30T13:56:45;22.80;99.90
32334;DHT22;18810;53.040;8.850;2023-07-30T13:59:10;23.20;99.90
32334;DHT22;18810;53.040;8.850;2023-07-30T14:01:36;23.20;99.90
32334;DHT22;18810;53.040;8.850;2023-07-30T14:04:02;23.20;99.90
32334;DHT22;18810;53.040;8.850;2023-07-30T14:06:27;23.20;99.90
32334;DHT22;18810;53.040;8.850;2023-07-30T14:08:54;23.30;99.90
32334;DHT22;18810;53.040;8.850;2023-07-30T14:11:20;23.60;99.90
32334;DHT22;18810;53.040;8.850;2023-07-30T14:13:45;23.60;99.90
32334;DHT22;18810;53.040;8.850;2023-07-30T14:16:11;24.00;99.90
32334;DHT22;18810;53.040;8.850;2023-07-30T14:18:37;24.40;99.90
32334;DHT22;18810;53.040;8.850;2023-07-30T14:21:04;24.70;99.90
32334;DHT22;18810;53.040;8.850;2023-07-30T14:23:30;24.70;99.90
32334;DHT22;18810;53.040;8.850;2023-07-30T14:25:56;24.40;99.90
32334;DHT22;18810;53.040;8.850;2023-07-30T14:28:22;24.60;99.90
32334;DHT22;18810;53.040;8.850;2023-07-30T14:30:47;24.40;99.90
32334;DHT22;18810;53.040;8.850;2023-07-30T14:33:13;24.40;99.90
32334;DHT22;18810;53.040;8.850;2023-07-30T14:35:39;24.20;99.90
32334;DHT22;18810;53.040;8.850;2023-07-30T14:38:05;23.80;99.90
32334;DHT22;18810;53.040;8.850;2023-07-30T14:40:32;23.90;99.90
32334;DHT22;18810;53.040;8.850;2023-07-30T14:42:57;23.80;99.90
32334;DHT22;18810;53.040;8.850;2023-07-30T14:45:24;24.30;99.90
32334;DHT22;18810;53.040;8.850;2023-07-30T14:47:49;24.70;99.90
32334;DHT22;18810;53.040;8.850;2023-07-30T14:50:15;24.50;99.90
32334;DHT22;18810;53.040;8.850;2023-07-30T14:52:40;24.40;99.90
32334;DHT22;18810;53.040;8.850;2023-07-30T14:55:06;24.10;99.90
32334;DHT22;18810;53.040;8.850;2023-07-30T14:57:32;23.80;99.90
32334;DHT22;18810;53.040;8.850;2023-07-30T14:59:58;23.70;99.90
32334;DHT22;18810;53.040;8.850;2023-07-30T15:02:29;23.60;99.90
32334;DHT22;18810;53.040;8.850;2023-07-30T15:04:55;23.20;99.90
32334;DHT22;18810;53.040;8.850;2023-07-30T15:07:21;23.20;99.90
32334;DHT22;18810;53.040;8.850;2023-07-30T15:09:53;23.10;99.90
32334;DHT22;18810;53.040;8.850;2023-07-30T15:12:20;22.60;99.90
32334;DHT22;18810;53.040;8.850;2023-07-30T15:14:46;21.70;99.90
32334;DHT22;18810;53.040;8.850;2023-07-30T15:17:11;20.70;99.90
32334;DHT22;18810;53.040;8.850;2023-07-30T15:19:38;19.90;99.90
32334;DHT22;18810;53.040;8.850;2023-07-30T15:22:04;19.30;99.90
32334;DHT22;18810;53.040;8.850;2023-07-30T15:24:30;18.70;99.90
32334;DHT22;18810;53.040;8.850;2023-07-30T15:26:56;18.30;99.90
32334;DHT22;18810;53.040;8.850;2023-07-30T15:29:21;18.00;99.90
32334;DHT22;18810;53.040;8.850;2023-07-30T15:31:49;18.00;99.90
32334;DHT22;18810;53.040;8.850;2023-07-30T15:34:15;18.10;99.90